Castlereagh, United Kingdom
Current Conditions -  °F | °C
As of 6:20 PM on Sunday 21 Dec 2014 (Local Time) from EGAC Reporting Station
Light Rain Light Rain  
Wind Chill: 54°   Ceiling: 2500
Heat Index: 54°   Visibility: 6mi
Dew Point: 50°   Wind: 24mph
Humidity: 88%   Direction: 230°SW
Pressure: 29.8"   Gusts: 36mph
Location:  54.57°N, 5.88°W
Report Text: EGAC 211820Z 23021G31KT 9999 9000W -RA FEW010 SCT015 BKN025 12/10 Q1009
Loading
Personal Weather Stations






























Interactive Weather Map New forecast layout! Learn more

10-Day Weather Forecast

Advertisements
Track Severe Weather on mobile